createdAt,value
2018-12-16T00:00:24.465Z,95611.29
2018-12-16T00:00:57.266Z,95607.12
2018-12-16T00:01:30.185Z,95611.95
2018-12-16T00:02:03.340Z,95609.05
2018-12-16T00:02:35.931Z,95613.54
2018-12-16T00:03:09.064Z,95609.46
2018-12-16T00:03:42.030Z,95605.88
2018-12-16T00:04:14.994Z,95605.63
2018-12-16T00:04:49.966Z,95606.71
2018-12-16T00:05:23.224Z,95610.45
2018-12-16T00:05:56.217Z,95610.21
2018-12-16T00:06:29.125Z,95611.37
2018-12-16T00:07:02.383Z,95615.05
2018-12-16T00:07:35.489Z,95610.55
2018-12-16T00:08:08.459Z,95609.54
2018-12-16T00:08:41.425Z,95609.80
2018-12-16T00:09:14.477Z,95616.78
2018-12-16T00:09:47.576Z,95611.54
2018-12-16T00:10:20.682Z,95611.95
2018-12-16T00:10:53.860Z,95612.63
2018-12-16T00:11:26.838Z,95615.70
2018-12-16T00:11:59.930Z,95613.13
2018-12-16T00:12:33.084Z,95615.62
2018-12-16T00:13:05.826Z,95608.79
2018-12-16T00:13:38.708Z,95613.54
2018-12-16T00:14:11.849Z,95617.53
2018-12-16T00:14:44.553Z,95616.20
2018-12-16T00:15:17.505Z,95618.03
2018-12-16T00:15:50.466Z,95617.95
2018-12-16T00:16:23.212Z,95617.62
2018-12-16T00:16:56.550Z,95616.03
2018-12-16T00:17:29.581Z,95620.28
2018-12-16T00:18:02.750Z,95616.45
2018-12-16T00:18:35.578Z,95618.61
2018-12-16T00:19:08.675Z,95616.54
2018-12-16T00:19:41.943Z,95616.95
2018-12-16T00:20:14.772Z,95615.70
2018-12-16T00:20:47.755Z,95613.63
2018-12-16T00:21:20.569Z,95616.45
2018-12-16T00:21:53.798Z,95611.95
2018-12-16T00:22:29.862Z,95613.70
2018-12-16T00:23:01.895Z,95611.55
2018-12-16T00:23:34.746Z,95615.78
2018-12-16T00:24:08.142Z,95613.79
2018-12-16T00:24:41.039Z,95611.20
2018-12-16T00:25:14.000Z,95608.96
2018-12-16T00:25:47.041Z,95610.55
2018-12-16T00:26:20.151Z,95611.05
2018-12-16T00:26:53.081Z,95611.95
2018-12-16T00:27:25.826Z,95612.05
2018-12-16T00:27:59.032Z,95605.16
2018-12-16T00:28:32.256Z,95605.13
2018-12-16T00:29:05.112Z,95604.13
2018-12-16T00:29:37.696Z,95601.55
2018-12-16T00:30:10.888Z,95594.73
2018-12-16T00:30:43.837Z,95594.02
2018-12-16T00:31:16.518Z,95591.31
2018-12-16T00:31:49.478Z,95590.73
2018-12-16T00:32:22.338Z,95583.98
2018-12-16T00:32:55.312Z,95582.66
2018-12-16T00:33:28.082Z,95585.48
2018-12-16T00:34:00.727Z,95580.33
2018-12-16T00:34:33.938Z,95581.98
2018-12-16T00:35:07.329Z,95580.49
2018-12-16T00:35:40.088Z,95577.41
2018-12-16T00:36:12.943Z,95577.50
2018-12-16T00:36:45.946Z,95578.83
2018-12-16T00:37:18.883Z,95577.08
2018-12-16T00:37:52.058Z,95575.08
2018-12-16T00:38:24.905Z,95575.16
2018-12-16T00:38:57.909Z,95576.99
2018-12-16T00:39:30.724Z,95575.00
2018-12-16T00:40:03.827Z,95579.66
2018-12-16T00:40:36.703Z,95580.24
2018-12-16T00:41:09.652Z,95575.66
2018-12-16T00:41:42.570Z,95576.49
2018-12-16T00:42:15.561Z,95579.49
2018-12-16T00:42:48.504Z,95576.66
2018-12-16T00:43:21.791Z,95581.99
2018-12-16T00:43:54.730Z,95578.33
2018-12-16T00:44:27.798Z,95580.99
2018-12-16T00:45:00.952Z,95579.91
2018-12-16T00:45:33.885Z,95583.66
2018-12-16T00:46:07.093Z,95591.73
2018-12-16T00:46:40.104Z,95588.81
2018-12-16T00:47:13.069Z,95585.56
2018-12-16T00:47:47.510Z,95588.56
2018-12-16T00:48:20.714Z,95591.48
2018-12-16T00:48:53.665Z,95589.73
2018-12-16T00:49:26.432Z,95588.31
2018-12-16T00:49:59.743Z,95576.66
2018-12-16T00:50:32.975Z,95584.33
2018-12-16T00:51:05.712Z,95579.16
2018-12-16T00:51:38.715Z,95582.83
2018-12-16T00:52:11.672Z,95577.33
2018-12-16T00:52:44.826Z,95584.08
2018-12-16T00:53:18.250Z,95581.16
2018-12-16T00:53:51.325Z,95575.00
2018-12-16T00:54:24.244Z,95571.58
2018-12-16T00:54:57.389Z,95573.91
2018-12-16T00:55:30.392Z,95567.09
2018-12-16T00:56:03.271Z,95567.17
2018-12-16T00:56:35.993Z,95569.92
2018-12-16T00:57:09.047Z,95564.34
2018-12-16T00:57:42.236Z,95565.51
2018-12-16T00:58:15.041Z,95563.42
2018-12-16T00:58:48.098Z,95560.67
2018-12-16T00:59:21.102Z,95562.09
2018-12-16T00:59:54.502Z,95560.67
2018-12-16T01:00:27.411Z,95558.10
2018-12-16T01:01:00.336Z,95557.19
2018-12-16T01:01:33.133Z,95554.02
2018-12-16T01:02:05.942Z,95553.85
2018-12-16T01:02:39.916Z,95554.69
2018-12-16T01:03:12.701Z,95551.36
2018-12-16T01:03:45.786Z,95548.86
2018-12-16T01:04:19.191Z,95543.86
2018-12-16T01:04:52.133Z,95545.69
2018-12-16T01:05:25.508Z,95547.11
2018-12-16T01:05:58.531Z,95543.86
2018-12-16T01:06:31.196Z,95542.78
2018-12-16T01:07:04.027Z,95539.95
2018-12-16T01:07:37.083Z,95538.95
2018-12-16T01:08:10.039Z,95538.87
2018-12-16T01:08:43.732Z,95538.95
2018-12-16T01:09:16.575Z,95535.45
2018-12-16T01:09:49.506Z,95537.53
2018-12-16T01:10:22.724Z,95534.55
2018-12-16T01:10:55.598Z,95534.63
2018-12-16T01:11:28.515Z,95532.38
2018-12-16T01:12:01.392Z,95528.88
2018-12-16T01:12:34.503Z,95533.45
2018-12-16T01:13:07.584Z,95531.38
2018-12-16T01:13:40.733Z,95529.21
2018-12-16T01:14:13.620Z,95527.88
2018-12-16T01:14:46.722Z,95527.27
2018-12-16T01:15:19.652Z,95521.86
2018-12-16T01:15:52.752Z,95521.52
2018-12-16T01:16:25.434Z,95520.94
2018-12-16T01:16:58.563Z,95524.19
2018-12-16T01:17:31.677Z,95521.72
2018-12-16T01:18:04.792Z,95525.63
2018-12-16T01:18:37.921Z,95519.77
2018-12-16T01:19:11.022Z,95523.38
2018-12-16T01:19:44.253Z,95521.64
2018-12-16T01:20:17.432Z,95521.55
2018-12-16T01:20:50.155Z,95520.72
2018-12-16T01:21:23.160Z,95518.27
2018-12-16T01:21:56.431Z,95517.11
2018-12-16T01:22:29.575Z,95515.53
2018-12-16T01:23:02.568Z,95512.12
2018-12-16T01:23:35.547Z,95510.20
2018-12-16T01:24:08.662Z,95510.95
2018-12-16T01:24:41.235Z,95505.45
2018-12-16T01:25:14.253Z,95509.23
2018-12-16T01:25:47.533Z,95507.87
2018-12-16T01:26:20.356Z,95507.20
2018-12-16T01:26:53.224Z,95505.29
2018-12-16T01:27:26.118Z,95500.55
2018-12-16T01:27:59.124Z,95494.05
2018-12-16T01:28:33.035Z,95495.30
2018-12-16T01:29:05.773Z,95497.72
2018-12-16T01:29:38.688Z,95493.89
2018-12-16T01:30:11.425Z,95494.97
2018-12-16T01:30:44.333Z,95494.72
2018-12-16T01:31:17.045Z,95489.31
2018-12-16T01:31:49.921Z,95491.14
2018-12-16T01:32:22.769Z,95488.77
2018-12-16T01:32:55.773Z,95490.02
2018-12-16T01:33:28.781Z,95490.39
2018-12-16T01:34:01.847Z,95487.86
2018-12-16T01:34:34.706Z,95484.20
2018-12-16T01:35:08.062Z,95487.53
2018-12-16T01:35:41.098Z,95479.54
2018-12-16T01:36:14.153Z,95479.91
2018-12-16T01:36:47.118Z,95480.53
2018-12-16T01:37:20.231Z,95480.98
2018-12-16T01:37:53.075Z,95478.57
2018-12-16T01:38:25.907Z,95473.08
2018-12-16T01:38:58.829Z,95474.16
2018-12-16T01:39:32.640Z,95473.41
2018-12-16T01:40:05.705Z,95466.75
2018-12-16T01:40:38.648Z,95465.50
2018-12-16T01:41:11.929Z,95463.34
2018-12-16T01:41:44.858Z,95455.48
2018-12-16T01:42:18.077Z,95460.34
2018-12-16T01:42:51.179Z,95460.84
2018-12-16T01:43:23.887Z,95460.06
2018-12-16T01:43:56.792Z,95457.18
2018-12-16T01:44:29.843Z,95455.68
2018-12-16T01:45:02.771Z,95459.42
2018-12-16T01:45:35.858Z,95454.19
2018-12-16T01:46:08.917Z,95456.73
2018-12-16T01:46:41.711Z,95451.02
2018-12-16T01:47:14.736Z,95446.70
2018-12-16T01:47:47.824Z,95449.02
2018-12-16T01:48:20.703Z,95448.61
2018-12-16T01:48:53.594Z,95447.11
2018-12-16T01:49:26.495Z,95441.95
2018-12-16T01:49:59.263Z,95439.87
2018-12-16T01:50:32.165Z,95445.28
2018-12-16T01:51:05.163Z,95443.03
2018-12-16T01:51:37.792Z,95439.62
2018-12-16T01:52:11.213Z,95444.28
2018-12-16T01:52:49.998Z,95444.45
2018-12-16T01:53:19.312Z,95441.53
2018-12-16T01:53:52.261Z,95439.70
2018-12-16T01:54:25.213Z,95438.54
2018-12-16T01:54:58.315Z,95440.92
2018-12-16T01:55:31.330Z,95439.53
2018-12-16T01:56:04.386Z,95442.86
2018-12-16T01:56:37.439Z,95441.61
2018-12-16T01:57:10.669Z,95445.11
2018-12-16T01:57:43.603Z,95448.61
2018-12-16T01:58:16.892Z,95447.44
2018-12-16T01:58:49.887Z,95450.94
2018-12-16T01:59:22.856Z,95452.35
2018-12-16T01:59:56.077Z,95454.93
2018-12-16T02:00:28.944Z,95456.59
2018-12-16T02:01:02.463Z,95457.68
2018-12-16T02:01:35.316Z,95454.19
2018-12-16T02:02:08.277Z,95462.25
2018-12-16T02:02:41.577Z,95464.67
2018-12-16T02:03:14.625Z,95458.43
2018-12-16T02:03:47.621Z,95465.09
2018-12-16T02:05:13.785Z,95461.92
2018-12-16T02:05:46.794Z,95463.75
2018-12-16T02:06:19.638Z,95463.25
2018-12-16T02:06:52.581Z,95464.09
2018-12-16T02:07:25.218Z,95460.02
2018-12-16T02:07:58.295Z,95451.07
2018-12-16T02:08:31.506Z,95449.19
2018-12-16T02:09:04.591Z,95447.94
2018-12-16T02:09:37.652Z,95450.61
2018-12-16T02:10:10.988Z,95447.61
2018-12-16T02:10:43.972Z,95449.27
2018-12-16T02:11:17.021Z,95450.36
2018-12-16T02:11:50.130Z,95449.58
2018-12-16T02:12:23.351Z,95452.11
2018-12-16T02:12:56.387Z,95452.69
2018-12-16T02:13:29.491Z,95450.11
2018-12-16T02:14:02.400Z,95446.77
2018-12-16T02:14:35.163Z,95449.33
2018-12-16T02:15:08.173Z,95446.77
2018-12-16T02:15:40.988Z,95445.70
2018-12-16T02:16:13.823Z,95442.86
2018-12-16T02:16:46.839Z,95444.00
2018-12-16T02:17:19.899Z,95443.53
2018-12-16T02:17:52.766Z,95443.36
2018-12-16T02:18:25.653Z,95438.29
2018-12-16T02:18:58.484Z,95437.09
2018-12-16T02:19:31.593Z,95441.36
2018-12-16T02:20:04.758Z,95437.54
2018-12-16T02:20:37.701Z,95439.12
2018-12-16T02:21:10.618Z,95436.59
2018-12-16T02:21:43.707Z,95438.62
2018-12-16T02:22:17.019Z,95435.70
2018-12-16T02:22:56.638Z,95434.95
2018-12-16T02:23:24.726Z,95432.59
2018-12-16T02:23:57.282Z,95434.27
2018-12-16T02:24:30.295Z,95434.92
2018-12-16T02:25:03.466Z,95436.20
2018-12-16T02:25:36.497Z,95434.63
2018-12-16T02:26:09.685Z,95429.30
2018-12-16T02:26:42.538Z,95427.55
2018-12-16T02:27:15.871Z,95429.69
2018-12-16T02:27:48.834Z,95427.69
2018-12-16T02:28:22.085Z,95424.69
2018-12-16T02:28:54.961Z,95433.93
2018-12-16T02:29:27.836Z,95430.10
2018-12-16T02:30:00.793Z,95432.59
2018-12-16T02:30:33.911Z,95429.30
2018-12-16T02:31:07.004Z,95424.80
2018-12-16T02:31:39.784Z,95427.88
2018-12-16T02:32:12.438Z,95426.30
2018-12-16T02:32:45.177Z,95423.56
2018-12-16T02:33:17.937Z,95423.39
2018-12-16T02:33:50.661Z,95424.61
2018-12-16T02:34:23.701Z,95423.94
2018-12-16T02:34:56.362Z,95422.36
2018-12-16T02:35:29.931Z,95419.36
2018-12-16T02:36:02.804Z,95421.45
2018-12-16T02:36:35.670Z,95416.62
2018-12-16T02:37:08.643Z,95419.98
2018-12-16T02:37:41.755Z,95419.48
2018-12-16T02:38:14.454Z,95412.63
2018-12-16T02:38:47.314Z,95411.57
2018-12-16T02:39:20.275Z,95410.88
2018-12-16T02:39:53.362Z,95412.04
2018-12-16T02:40:26.598Z,95406.05
2018-12-16T02:40:59.720Z,95404.80
2018-12-16T02:41:32.820Z,95402.80
2018-12-16T02:42:05.910Z,95405.47
2018-12-16T02:42:38.859Z,95406.97
2018-12-16T02:43:11.978Z,95407.30
2018-12-16T02:43:44.887Z,95406.30
2018-12-16T02:44:17.859Z,95403.91
2018-12-16T02:44:50.543Z,95403.50
2018-12-16T02:45:23.469Z,95404.13
2018-12-16T02:45:56.310Z,95400.89
2018-12-16T02:46:29.371Z,95405.00
2018-12-16T02:47:02.343Z,95400.30
2018-12-16T02:47:35.213Z,95400.06
2018-12-16T02:48:08.113Z,95401.47
2018-12-16T02:48:40.719Z,95397.47
2018-12-16T02:49:13.844Z,95399.97
2018-12-16T02:49:46.581Z,95403.30
2018-12-16T02:50:19.506Z,95398.64
2018-12-16T02:50:52.622Z,95400.72
2018-12-16T02:51:25.506Z,95405.38
2018-12-16T02:51:58.266Z,95398.47
2018-12-16T02:52:31.113Z,95400.14
2018-12-16T02:53:04.794Z,95404.05
2018-12-16T02:53:38.182Z,95402.97
2018-12-16T02:54:11.050Z,95400.14
2018-12-16T02:54:44.072Z,95401.80
2018-12-16T02:55:17.185Z,95403.38
2018-12-16T02:55:50.437Z,95399.06
2018-12-16T02:56:23.479Z,95397.39
2018-12-16T02:56:56.569Z,95399.39
2018-12-16T02:57:29.648Z,95397.64
2018-12-16T02:58:47.059Z,95393.48
2018-12-16T02:59:20.027Z,95393.73
2018-12-16T02:59:52.875Z,95391.66
2018-12-16T03:00:25.684Z,95391.56
2018-12-16T03:00:58.699Z,95391.48
2018-12-16T03:01:31.665Z,95392.65
2018-12-16T03:02:04.333Z,95390.66
2018-12-16T03:02:37.493Z,95389.31
2018-12-16T03:03:10.394Z,95392.06
2018-12-16T03:03:43.390Z,95387.82
2018-12-16T03:04:16.156Z,95391.16
2018-12-16T03:04:49.251Z,95390.81
2018-12-16T03:05:22.072Z,95387.98
2018-12-16T03:05:54.770Z,95387.57
2018-12-16T03:06:27.915Z,95386.24
2018-12-16T03:07:01.590Z,95385.16
2018-12-16T03:07:34.451Z,95385.83
2018-12-16T03:08:07.209Z,95388.23
2018-12-16T03:08:40.159Z,95383.66
2018-12-16T03:09:13.461Z,95386.07
2018-12-16T03:09:46.328Z,95387.73
2018-12-16T03:10:19.536Z,95384.33
2018-12-16T03:10:52.567Z,95385.82
2018-12-16T03:11:25.644Z,95385.82
2018-12-16T03:11:58.900Z,95379.50
2018-12-16T03:12:31.661Z,95385.33
2018-12-16T03:13:04.539Z,95383.33
2018-12-16T03:13:37.305Z,95382.00
2018-12-16T03:14:11.523Z,95382.50
2018-12-16T03:14:44.984Z,95385.41
2018-12-16T03:15:17.913Z,95380.75
2018-12-16T03:15:51.166Z,95385.58
2018-12-16T03:16:23.987Z,95387.24
2018-12-16T03:16:56.934Z,95382.66
2018-12-16T03:17:29.791Z,95383.91
2018-12-16T03:18:02.601Z,95386.24
2018-12-16T03:18:35.666Z,95386.99
2018-12-16T03:19:08.652Z,95389.16
2018-12-16T03:19:41.508Z,95384.58
2018-12-16T03:20:14.284Z,95388.23
2018-12-16T03:20:47.173Z,95387.66
2018-12-16T03:21:21.049Z,95383.08
2018-12-16T03:21:54.113Z,95385.66
2018-12-16T03:22:27.242Z,95385.33
2018-12-16T03:23:00.081Z,95386.83
2018-12-16T03:23:32.877Z,95387.49
2018-12-16T03:24:06.068Z,95384.00
2018-12-16T03:24:39.457Z,95384.83
2018-12-16T03:25:12.614Z,95381.75
2018-12-16T03:25:45.745Z,95384.16
2018-12-16T03:26:18.806Z,95380.16
2018-12-16T03:26:52.060Z,95381.58
2018-12-16T03:27:25.267Z,95380.75
2018-12-16T03:27:58.192Z,95382.16
2018-12-16T03:28:30.993Z,95384.08
2018-12-16T03:29:04.075Z,95384.16
2018-12-16T03:29:36.782Z,95386.66
2018-12-16T03:30:10.070Z,95386.82
2018-12-16T03:30:42.864Z,95385.24
2018-12-16T03:31:15.846Z,95385.49
2018-12-16T03:31:48.701Z,95384.91
2018-12-16T03:32:21.613Z,95384.16
2018-12-16T03:32:54.556Z,95381.75
2018-12-16T03:33:27.544Z,95379.09
2018-12-16T03:34:01.615Z,95378.91
2018-12-16T03:34:34.520Z,95376.00
2018-12-16T03:35:07.592Z,95379.50
2018-12-16T03:35:40.614Z,95373.01
2018-12-16T03:36:13.459Z,95374.25
2018-12-16T03:36:46.221Z,95371.09
2018-12-16T03:37:18.939Z,95367.52
2018-12-16T03:37:51.704Z,95366.02
2018-12-16T03:38:24.600Z,95364.27
2018-12-16T03:38:57.512Z,95368.52
2018-12-16T03:39:30.624Z,95365.34
2018-12-16T03:40:03.650Z,95361.77
2018-12-16T03:40:36.678Z,95359.44
2018-12-16T03:41:09.417Z,95361.11
2018-12-16T03:41:42.436Z,95357.86
2018-12-16T03:42:15.261Z,95348.62
2018-12-16T03:42:48.216Z,95352.70
2018-12-16T03:43:21.383Z,95350.04
2018-12-16T03:43:54.534Z,95354.03
2018-12-16T03:44:27.910Z,95349.45
2018-12-16T03:45:00.798Z,95352.70
2018-12-16T03:45:33.514Z,95349.55
2018-12-16T03:46:06.441Z,95357.03
2018-12-16T03:46:39.521Z,95350.20
2018-12-16T03:47:12.454Z,95359.94
2018-12-16T03:47:45.274Z,95362.27
2018-12-16T03:48:18.213Z,95361.02
2018-12-16T03:48:50.861Z,95358.61
2018-12-16T03:49:23.753Z,95361.02
2018-12-16T03:49:56.465Z,95362.69
2018-12-16T03:50:29.576Z,95361.36
2018-12-16T03:51:02.395Z,95362.77
2018-12-16T03:51:35.484Z,95360.86
2018-12-16T03:52:08.689Z,95362.44
2018-12-16T03:52:41.551Z,95362.36
2018-12-16T03:53:19.769Z,95362.27
2018-12-16T03:53:49.700Z,95356.03
2018-12-16T03:54:22.988Z,95361.44
2018-12-16T03:54:55.731Z,95352.53
2018-12-16T03:55:28.589Z,95353.03
2018-12-16T03:56:01.546Z,95351.95
2018-12-16T03:56:34.641Z,95349.95
2018-12-16T03:57:07.465Z,95352.78
2018-12-16T03:57:40.525Z,95347.96
2018-12-16T03:58:13.496Z,95352.28
2018-12-16T03:58:46.378Z,95349.02
2018-12-16T03:59:19.289Z,95351.87
2018-12-16T03:59:52.398Z,95349.20
2018-12-16T04:00:25.690Z,95352.70
2018-12-16T04:00:58.844Z,95348.88
2018-12-16T04:01:32.163Z,95353.53
2018-12-16T04:02:04.909Z,95345.21
2018-12-16T04:02:38.118Z,95353.20
2018-12-16T04:03:11.142Z,95349.70
2018-12-16T04:03:43.972Z,95347.95
2018-12-16T04:04:17.418Z,95344.63
2018-12-16T04:04:50.398Z,95347.30
2018-12-16T04:05:23.182Z,95345.70
2018-12-16T04:05:56.913Z,95344.87
2018-12-16T04:06:29.921Z,95338.47
2018-12-16T04:07:03.034Z,95345.13
2018-12-16T04:07:35.915Z,95346.98
2018-12-16T04:08:08.863Z,95340.66
2018-12-16T04:08:41.696Z,95344.23
2018-12-16T04:09:14.393Z,95338.83
2018-12-16T04:09:47.515Z,95338.00
2018-12-16T04:10:20.490Z,95340.58
2018-12-16T04:10:53.265Z,95340.74
2018-12-16T04:11:26.342Z,95335.91
2018-12-16T04:11:59.220Z,95328.76
2018-12-16T04:12:32.234Z,95334.58
2018-12-16T04:13:05.055Z,95330.25
2018-12-16T04:13:37.875Z,95327.76
2018-12-16T04:14:10.795Z,95329.42
2018-12-16T04:14:44.134Z,95330.59
2018-12-16T04:15:17.215Z,95327.17
2018-12-16T04:15:50.226Z,95327.09
2018-12-16T04:16:23.193Z,95323.34
2018-12-16T04:16:57.193Z,95323.18
2018-12-16T04:17:30.166Z,95325.84
2018-12-16T04:18:03.019Z,95322.59
2018-12-16T04:18:36.095Z,95320.34
2018-12-16T04:19:09.012Z,95325.43
2018-12-16T04:19:41.967Z,95320.59
2018-12-16T04:20:14.898Z,95319.94
2018-12-16T04:20:47.997Z,95323.09
2018-12-16T04:21:20.638Z,95323.09
2018-12-16T04:21:53.834Z,95324.84
2018-12-16T04:22:26.687Z,95324.43
2018-12-16T04:22:59.761Z,95331.34
2018-12-16T04:23:33.308Z,95329.34
2018-12-16T04:24:06.036Z,95331.09
2018-12-16T04:24:38.917Z,95330.59
2018-12-16T04:25:11.597Z,95331.91
2018-12-16T04:25:44.299Z,95332.09
2018-12-16T04:26:17.280Z,95333.91
2018-12-16T04:26:50.263Z,95325.67
2018-12-16T04:27:23.255Z,95324.43
2018-12-16T04:27:56.442Z,95329.75
2018-12-16T04:28:29.214Z,95331.50
2018-12-16T04:29:03.033Z,95330.70
2018-12-16T04:29:36.040Z,95328.75
2018-12-16T04:30:08.887Z,95324.18
2018-12-16T04:30:42.012Z,95325.76
2018-12-16T04:31:14.830Z,95325.34
2018-12-16T04:31:47.761Z,95331.70
2018-12-16T04:32:20.700Z,95329.95
2018-12-16T04:32:53.531Z,95325.09
2018-12-16T04:33:26.270Z,95327.95
2018-12-16T04:33:59.280Z,95327.95
2018-12-16T04:34:32.005Z,95331.11
2018-12-16T04:35:04.818Z,95328.95
2018-12-16T04:35:37.752Z,95328.25
2018-12-16T04:36:10.614Z,95334.27
2018-12-16T04:36:43.729Z,95331.20
2018-12-16T04:37:16.648Z,95331.61
2018-12-16T04:37:49.541Z,95332.77
2018-12-16T04:38:22.596Z,95335.36
2018-12-16T04:38:55.686Z,95337.60
2018-12-16T04:39:28.857Z,95340.77
2018-12-16T04:40:01.969Z,95341.18
2018-12-16T04:40:35.019Z,95337.11
2018-12-16T04:41:07.893Z,95340.59
2018-12-16T04:41:40.599Z,95342.09
2018-12-16T04:42:13.576Z,95344.17
2018-12-16T04:42:46.453Z,95346.84
2018-12-16T04:43:19.416Z,95347.75
2018-12-16T04:43:52.471Z,95342.27
2018-12-16T04:44:25.748Z,95342.02
2018-12-16T04:44:58.813Z,95342.43
2018-12-16T04:45:32.010Z,95341.34
2018-12-16T04:46:04.894Z,95342.02
2018-12-16T04:46:37.715Z,95342.77
2018-12-16T04:47:10.695Z,95339.43
2018-12-16T04:47:43.683Z,95337.35
2018-12-16T04:48:16.465Z,95336.35
2018-12-16T04:48:49.411Z,95334.52
2018-12-16T04:49:22.385Z,95332.69
2018-12-16T04:49:56.031Z,95335.85
2018-12-16T04:50:28.899Z,95334.35
2018-12-16T04:51:01.776Z,95331.69
2018-12-16T04:51:34.893Z,95338.27
2018-12-16T04:52:07.741Z,95328.94
2018-12-16T04:52:40.593Z,95330.19
2018-12-16T04:53:13.464Z,95332.19
2018-12-16T04:53:46.194Z,95332.77
2018-12-16T04:54:18.763Z,95328.52
2018-12-16T04:54:51.600Z,95332.02
2018-12-16T04:55:24.541Z,95329.19
2018-12-16T04:55:57.446Z,95330.36
2018-12-16T04:56:30.456Z,95330.47
2018-12-16T04:57:03.168Z,95327.38
2018-12-16T04:57:36.314Z,95328.97
2018-12-16T04:58:09.136Z,95326.30
2018-12-16T04:58:42.331Z,95323.89
2018-12-16T04:59:15.145Z,95326.30
2018-12-16T04:59:48.196Z,95328.69
2018-12-16T05:00:21.167Z,95327.97
2018-12-16T05:00:54.038Z,95327.44
2018-12-16T05:01:26.921Z,95324.11
2018-12-16T05:01:59.892Z,95329.80
2018-12-16T05:02:32.823Z,95329.80
2018-12-16T05:03:05.490Z,95335.21
2018-12-16T05:03:38.356Z,95328.47
2018-12-16T05:04:11.344Z,95329.80
2018-12-16T05:04:44.277Z,95332.05
2018-12-16T05:05:17.501Z,95318.48
2018-12-16T05:05:50.436Z,95322.36
2018-12-16T05:06:23.562Z,95327.30
2018-12-16T05:06:56.536Z,95326.13
2018-12-16T05:07:29.357Z,95323.97
2018-12-16T05:08:02.151Z,95329.30
2018-12-16T05:08:35.078Z,95323.89
2018-12-16T05:09:08.152Z,95325.64
2018-12-16T05:09:41.236Z,95328.80
2018-12-16T05:10:14.176Z,95329.72
2018-12-16T05:10:46.929Z,95324.14
2018-12-16T05:11:20.000Z,95320.72
2018-12-16T05:11:52.695Z,95323.47
2018-12-16T05:12:25.655Z,95315.23
2018-12-16T05:12:58.743Z,95319.56
2018-12-16T05:13:31.904Z,95315.40
2018-12-16T05:14:04.809Z,95316.15
2018-12-16T05:14:37.541Z,95312.98
2018-12-16T05:15:10.342Z,95316.39
2018-12-16T05:15:43.313Z,95316.81
2018-12-16T05:16:16.194Z,95317.48
2018-12-16T05:16:49.305Z,95315.98
2018-12-16T05:17:22.295Z,95316.73
2018-12-16T05:17:55.361Z,95313.81
2018-12-16T05:18:28.060Z,95313.14
2018-12-16T05:19:01.229Z,95313.73
2018-12-16T05:19:34.365Z,95312.40
2018-12-16T05:20:07.884Z,95310.48
2018-12-16T05:20:40.953Z,95309.98
2018-12-16T05:21:13.868Z,95309.98
2018-12-16T05:21:46.938Z,95310.48
2018-12-16T05:22:20.209Z,95308.48
2018-12-16T05:22:53.104Z,95303.98
2018-12-16T05:23:26.324Z,95311.65
2018-12-16T05:23:59.160Z,95308.57
2018-12-16T05:24:32.100Z,95307.48
2018-12-16T05:25:04.821Z,95311.42
2018-12-16T05:25:37.936Z,95311.31
2018-12-16T05:26:10.689Z,95311.14
2018-12-16T05:26:43.531Z,95314.81
2018-12-16T05:27:16.443Z,95311.09
2018-12-16T05:27:49.616Z,95314.23
2018-12-16T05:28:22.624Z,95311.15
2018-12-16T05:28:55.491Z,95311.73
2018-12-16T05:29:28.578Z,95314.14
2018-12-16T05:30:01.691Z,95311.98
2018-12-16T05:30:34.726Z,95313.81
2018-12-16T05:31:07.785Z,95315.89
2018-12-16T05:31:40.746Z,95311.98
2018-12-16T05:32:13.829Z,95315.17
2018-12-16T05:32:47.116Z,95312.01
2018-12-16T05:33:20.211Z,95309.73
2018-12-16T05:33:53.363Z,95308.31
2018-12-16T05:34:26.093Z,95310.98
2018-12-16T05:34:58.928Z,95310.48
2018-12-16T05:35:31.791Z,95311.14
2018-12-16T05:36:04.728Z,95307.09
2018-12-16T05:36:37.600Z,95310.48
2018-12-16T05:37:10.472Z,95306.82
2018-12-16T05:37:43.556Z,95310.23
2018-12-16T05:38:16.382Z,95309.15
2018-12-16T05:38:49.766Z,95305.16
2018-12-16T05:39:22.941Z,95305.57
2018-12-16T05:39:55.912Z,95303.94
2018-12-16T05:40:28.667Z,95300.16
2018-12-16T05:41:01.468Z,95299.24
2018-12-16T05:41:34.781Z,95299.99
2018-12-16T05:42:07.512Z,95305.98
2018-12-16T05:42:40.515Z,95302.83
2018-12-16T05:43:13.494Z,95306.09
2018-12-16T05:43:46.376Z,95311.34
2018-12-16T05:44:19.534Z,95306.15
2018-12-16T05:44:52.435Z,95306.27
2018-12-16T05:45:25.335Z,95308.15
2018-12-16T05:45:58.049Z,95308.34
2018-12-16T05:46:31.126Z,95302.10
2018-12-16T05:47:03.845Z,95307.34
2018-12-16T05:47:36.813Z,95304.16
2018-12-16T05:48:09.812Z,95304.59
2018-12-16T05:48:42.766Z,95304.52
2018-12-16T05:49:15.483Z,95303.77
2018-12-16T05:49:48.578Z,95307.32
2018-12-16T05:50:21.811Z,95306.91
2018-12-16T05:50:54.848Z,95308.15
2018-12-16T05:51:27.661Z,95306.82
2018-12-16T05:52:00.763Z,95307.98
2018-12-16T05:52:33.742Z,95307.48
2018-12-16T05:53:06.742Z,95308.18
2018-12-16T05:53:39.609Z,95312.09
2018-12-16T05:54:12.627Z,95306.48
2018-12-16T05:54:45.554Z,95313.31
2018-12-16T05:55:18.350Z,95310.64
2018-12-16T05:55:51.320Z,95314.14
2018-12-16T05:56:24.391Z,95315.14
2018-12-16T05:56:57.304Z,95315.25
2018-12-16T05:57:30.222Z,95319.50
2018-12-16T05:58:03.312Z,95320.66
2018-12-16T05:58:36.261Z,95316.30
2018-12-16T05:59:09.286Z,95315.42
2018-12-16T05:59:42.143Z,95314.48
2018-12-16T06:00:14.972Z,95315.64
2018-12-16T06:00:48.703Z,95312.76
2018-12-16T06:01:21.583Z,95308.02
2018-12-16T06:01:54.875Z,95310.34
2018-12-16T06:02:27.730Z,95308.26
2018-12-16T06:03:00.820Z,95306.34
2018-12-16T06:03:33.894Z,95304.52
2018-12-16T06:04:07.556Z,95303.19
2018-12-16T06:04:40.647Z,95301.27
2018-12-16T06:05:13.566Z,95298.94
2018-12-16T06:05:46.516Z,95295.44
2018-12-16T06:06:19.346Z,95299.52
2018-12-16T06:06:52.175Z,95299.52
2018-12-16T06:07:24.887Z,95301.27
2018-12-16T06:07:57.751Z,95300.34
2018-12-16T06:08:30.750Z,95304.69
2018-12-16T06:09:03.807Z,95298.27
2018-12-16T06:09:36.428Z,95299.33
2018-12-16T06:10:09.627Z,95300.48
2018-12-16T06:10:42.412Z,95299.33
2018-12-16T06:11:15.350Z,95296.33
2018-12-16T06:11:48.263Z,95300.52
2018-12-16T06:12:21.298Z,95295.69
2018-12-16T06:12:54.426Z,95293.52
2018-12-16T06:13:27.295Z,95291.20
2018-12-16T06:14:00.083Z,95295.02
2018-12-16T06:14:33.170Z,95291.19
2018-12-16T06:15:05.889Z,95292.61
2018-12-16T06:15:38.501Z,95287.45
2018-12-16T06:16:11.351Z,95291.36
2018-12-16T06:16:44.278Z,95287.70
2018-12-16T06:17:17.251Z,95287.36
2018-12-16T06:17:50.665Z,95287.20
2018-12-16T06:18:23.943Z,95282.70
2018-12-16T06:18:56.916Z,95283.62
2018-12-16T06:19:30.003Z,95282.45
2018-12-16T06:20:03.222Z,95282.87
2018-12-16T06:20:35.796Z,95282.54
2018-12-16T06:21:08.671Z,95278.21
2018-12-16T06:21:41.574Z,95280.70
2018-12-16T06:22:14.575Z,95283.28
2018-12-16T06:22:47.962Z,95284.20
2018-12-16T06:23:21.087Z,95280.88
2018-12-16T06:23:55.710Z,95279.62
2018-12-16T06:24:28.979Z,95281.87
2018-12-16T06:25:02.049Z,95280.54
2018-12-16T06:25:34.896Z,95279.79
2018-12-16T06:26:07.526Z,95278.88
2018-12-16T06:26:41.100Z,95282.20
2018-12-16T06:27:14.278Z,95278.95
2018-12-16T06:27:47.171Z,95282.20
2018-12-16T06:28:20.267Z,95277.80
2018-12-16T06:28:53.189Z,95278.05
2018-12-16T06:29:26.061Z,95276.02